createdAt,value
2023-03-04T00:00:28.352Z,1.43
2023-03-04T00:02:31.139Z,1.49
2023-03-04T00:04:33.967Z,0.77
2023-03-04T00:06:36.719Z,1.40
2023-03-04T00:08:39.494Z,1.39
2023-03-04T00:10:43.807Z,1.43
2023-03-04T00:12:46.547Z,-0.23
2023-03-04T00:14:49.392Z,1.03
2023-03-04T00:16:52.236Z,0.89
2023-03-04T00:18:55.098Z,0.91
2023-03-04T00:20:57.861Z,0.63
2023-03-04T00:23:00.646Z,0.74
2023-03-04T00:25:03.488Z,0.71
2023-03-04T00:27:07.584Z,0.81
2023-03-04T00:29:10.454Z,-0.48
2023-03-04T00:31:13.901Z,-0.41
2023-03-04T00:33:17.151Z,0.37
2023-03-04T00:35:20.127Z,0.26
2023-03-04T00:37:23.036Z,0.27
2023-03-04T00:39:26.383Z,0.39
2023-03-04T00:41:29.160Z,0.88
2023-03-04T00:43:33.381Z,0.95
2023-03-04T00:45:36.374Z,0.95
2023-03-04T00:47:39.187Z,0.63
2023-03-04T00:49:42.058Z,0.42
2023-03-04T00:51:44.905Z,0.20
2023-03-04T00:53:47.998Z,0.30
2023-03-04T00:55:53.349Z,0.41
2023-03-04T00:57:56.184Z,0.74
2023-03-04T01:00:00.336Z,0.84
2023-03-04T01:02:03.173Z,0.58
2023-03-04T01:04:06.189Z,0.63
2023-03-04T01:06:09.758Z,-1.38
2023-03-04T01:08:12.592Z,0.53
2023-03-04T01:10:16.736Z,0.83
2023-03-04T01:12:19.856Z,0.46
2023-03-04T01:14:22.677Z,0.70
2023-03-04T01:16:27.002Z,0.70
2023-03-04T01:18:30.644Z,0.64
2023-03-04T01:20:33.750Z,0.84
2023-03-04T01:22:36.626Z,0.50
2023-03-04T01:24:39.542Z,0.76
2023-03-04T01:26:42.447Z,0.79
2023-03-04T01:28:45.257Z,0.77
2023-03-04T01:30:48.145Z,0.72
2023-03-04T01:32:52.297Z,0.72
2023-03-04T01:34:55.078Z,0.72
2023-03-04T01:36:57.922Z,0.52
2023-03-04T01:39:00.731Z,0.25
2023-03-04T01:41:03.845Z,0.28
2023-03-04T01:43:07.961Z,0.42
2023-03-04T01:45:15.335Z,0.54
2023-03-04T01:47:19.096Z,0.47
2023-03-04T01:49:24.116Z,0.36
2023-03-04T01:51:26.931Z,0.22
2023-03-04T01:53:30.630Z,0.39
2023-03-04T01:55:33.935Z,0.41
2023-03-04T01:57:37.241Z,0.13
2023-03-04T01:59:40.075Z,0.14
2023-03-04T02:01:45.360Z,0.38
2023-03-04T02:03:48.199Z,0.45
2023-03-04T02:05:54.359Z,-0.01
2023-03-04T02:07:59.312Z,0.47
2023-03-04T02:10:02.207Z,0.19
2023-03-04T02:12:05.399Z,0.39
2023-03-04T02:14:08.550Z,0.30
2023-03-04T02:16:11.307Z,0.27
2023-03-04T02:18:17.642Z,0.03
2023-03-04T02:20:32.761Z,0.06
2023-03-04T02:22:44.058Z,0.14
2023-03-04T02:24:51.244Z,0.28
2023-03-04T02:26:55.687Z,-0.01
2023-03-04T02:29:01.034Z,0.36
2023-03-04T02:31:03.890Z,0.37
2023-03-04T02:33:07.139Z,0.37
2023-03-04T02:35:17.175Z,0.36
2023-03-04T02:37:21.977Z,0.34
2023-03-04T02:39:32.641Z,-0.20
2023-03-04T02:41:35.800Z,0.20
2023-03-04T02:43:39.939Z,0.27
2023-03-04T02:45:45.865Z,0.29
2023-03-04T02:47:48.738Z,0.20
2023-03-04T02:49:51.576Z,0.16
2023-03-04T02:52:00.074Z,0.17
2023-03-04T02:54:03.932Z,0.16
2023-03-04T02:56:07.293Z,0.13
2023-03-04T02:58:13.136Z,0.15
2023-03-04T03:00:18.158Z,0.18
2023-03-04T03:02:20.993Z,0.16
2023-03-04T03:04:24.878Z,0.12
2023-03-04T03:06:29.651Z,0.21
2023-03-04T03:08:32.498Z,-0.24
2023-03-04T03:10:37.322Z,0.19
2023-03-04T03:12:42.362Z,0.18
2023-03-04T03:14:45.188Z,0.17
2023-03-04T03:16:51.517Z,-0.49
2023-03-04T03:18:54.424Z,0.16
2023-03-04T03:20:58.234Z,0.12
2023-03-04T03:23:00.988Z,0.03
2023-03-04T03:25:04.692Z,0.01
2023-03-04T03:27:07.527Z,-0.02
2023-03-04T03:29:10.393Z,-0.26
2023-03-04T03:31:13.280Z,-0.16
2023-03-04T03:33:17.696Z,-0.07
2023-03-04T03:35:20.657Z,-0.20
2023-03-04T03:37:23.492Z,-0.01
2023-03-04T03:39:26.274Z,-0.12
2023-03-04T03:41:29.070Z,-0.07
2023-03-04T03:43:31.868Z,-0.07
2023-03-04T03:45:34.700Z,-0.05
2023-03-04T03:47:37.637Z,-0.25
2023-03-04T03:49:41.769Z,-0.03
2023-03-04T03:51:44.683Z,0.01
2023-03-04T03:53:47.476Z,0.04
2023-03-04T03:55:50.259Z,0.05
2023-03-04T03:57:53.003Z,-0.05
2023-03-04T03:59:55.817Z,-0.21
2023-03-04T04:01:58.638Z,-0.07
2023-03-04T04:04:01.533Z,-0.10
2023-03-04T04:06:06.109Z,-0.74
2023-03-04T04:08:08.963Z,-0.25
2023-03-04T04:10:12.592Z,-0.74
2023-03-04T04:12:16.661Z,-0.60
2023-03-04T04:14:19.445Z,-0.27
2023-03-04T04:16:22.549Z,-0.45
2023-03-04T04:18:25.902Z,-0.14
2023-03-04T04:20:28.883Z,-0.18
2023-03-04T04:22:33.149Z,-0.20
2023-03-04T04:24:36.191Z,-0.26
2023-03-04T04:26:39.002Z,-0.63
2023-03-04T04:28:41.832Z,-0.65
2023-03-04T04:30:44.704Z,-0.44
2023-03-04T04:32:47.529Z,-0.64
2023-03-04T04:34:50.295Z,-0.65
2023-03-04T04:36:53.172Z,-0.63
2023-03-04T04:38:57.593Z,-0.82
2023-03-04T04:41:01.021Z,-0.78
2023-03-04T04:43:04.015Z,-0.84
2023-03-04T04:45:08.340Z,-0.72
2023-03-04T04:47:11.178Z,-0.77
2023-03-04T04:49:13.037Z,-0.80
2023-03-04T04:51:15.927Z,-0.84
2023-03-04T04:53:18.675Z,-1.37
2023-03-04T04:55:22.767Z,-1.36
2023-03-04T04:57:25.828Z,-1.40
2023-03-04T04:59:28.612Z,-3.17
2023-03-04T05:01:31.682Z,-1.20
2023-03-04T05:03:35.414Z,-1.28
2023-03-04T05:05:38.136Z,-1.21
2023-03-04T05:07:40.932Z,-1.46
2023-03-04T05:09:43.703Z,-2.63
2023-03-04T05:11:47.860Z,-1.41
2023-03-04T05:13:50.744Z,-2.08
2023-03-04T05:15:54.156Z,-1.39
2023-03-04T05:17:57.421Z,-1.45
2023-03-04T05:20:00.201Z,-1.37
2023-03-04T05:22:02.990Z,-1.25
2023-03-04T05:24:06.096Z,-1.58
2023-03-04T05:26:10.105Z,-1.16
2023-03-04T05:28:14.574Z,-1.14
2023-03-04T05:30:17.569Z,-1.11
2023-03-04T05:32:20.316Z,-1.19
2023-03-04T05:34:23.141Z,-1.37
2023-03-04T05:36:25.897Z,-1.50
2023-03-04T05:38:28.671Z,-1.45
2023-03-04T05:40:31.471Z,-1.47
2023-03-04T05:42:34.221Z,-1.81
2023-03-04T05:44:38.318Z,-1.58
2023-03-04T05:46:41.123Z,-1.34
2023-03-04T05:48:44.848Z,-1.19
2023-03-04T05:50:47.757Z,-1.09
2023-03-04T05:52:50.829Z,-1.03
2023-03-04T05:54:53.624Z,-1.32
2023-03-04T05:56:56.366Z,-1.05
2023-03-04T05:58:59.288Z,-1.05
2023-03-04T06:01:04.066Z,-1.05
2023-03-04T06:03:06.801Z,-1.05
2023-03-04T06:05:11.016Z,-1.06
2023-03-04T06:07:13.732Z,-1.07
2023-03-04T06:09:16.817Z,-0.97
2023-03-04T06:11:19.521Z,-1.79
2023-03-04T06:13:22.961Z,-0.95
2023-03-04T06:15:25.712Z,-1.03
2023-03-04T06:17:30.371Z,-1.02
2023-03-04T06:19:33.083Z,-1.03
2023-03-04T06:21:35.848Z,-0.99
2023-03-04T06:23:38.683Z,-0.95
2023-03-04T06:25:41.441Z,-0.97
2023-03-04T06:27:44.157Z,-0.90
2023-03-04T06:29:46.901Z,-0.87
2023-03-04T06:31:49.648Z,-0.88
2023-03-04T06:33:53.720Z,-1.14
2023-03-04T06:35:58.335Z,-0.83
2023-03-04T06:38:01.199Z,-0.81
2023-03-04T06:40:04.596Z,-0.85
2023-03-04T06:42:07.446Z,-0.90
2023-03-04T06:44:10.468Z,-0.86
2023-03-04T06:46:13.337Z,-1.20
2023-03-04T06:48:16.068Z,-0.65
2023-03-04T06:50:20.368Z,-0.62
2023-03-04T06:52:23.137Z,-0.57
2023-03-04T06:54:25.971Z,-0.48
2023-03-04T06:56:29.012Z,-0.41
2023-03-04T06:58:31.902Z,-0.40
2023-03-04T07:00:34.829Z,-0.35
2023-03-04T07:02:37.664Z,-0.50
2023-03-04T07:04:40.831Z,-0.79
2023-03-04T07:06:44.947Z,-0.44
2023-03-04T07:08:48.034Z,-0.20
2023-03-04T07:10:50.883Z,-0.14
2023-03-04T07:12:53.622Z,-0.13
2023-03-04T07:14:56.346Z,-0.18
2023-03-04T07:16:59.189Z,0.05
2023-03-04T07:19:02.663Z,0.26
2023-03-04T07:21:06.707Z,0.03
2023-03-04T07:23:10.824Z,0.57
2023-03-04T07:25:14.012Z,0.30
2023-03-04T07:27:16.842Z,0.36
2023-03-04T07:29:19.680Z,0.87
2023-03-04T07:31:24.813Z,0.23
2023-03-04T07:33:27.627Z,1.03
2023-03-04T07:35:30.406Z,0.90
2023-03-04T07:37:33.169Z,1.12
2023-03-04T07:39:37.297Z,1.42
2023-03-04T07:41:40.716Z,1.37
2023-03-04T07:43:44.038Z,1.48
2023-03-04T07:45:46.862Z,1.61
2023-03-04T07:47:49.617Z,1.70
2023-03-04T07:49:52.383Z,1.40
2023-03-04T07:51:55.137Z,1.53
2023-03-04T07:53:59.451Z,1.77
2023-03-04T07:56:03.744Z,1.88
2023-03-04T07:58:06.494Z,1.97
2023-03-04T08:00:12.216Z,1.86
2023-03-04T08:02:17.985Z,2.05
2023-03-04T08:04:20.783Z,2.22
2023-03-04T08:06:24.531Z,2.19
2023-03-04T08:08:27.267Z,2.26
2023-03-04T08:10:30.008Z,2.03
2023-03-04T08:12:34.125Z,2.08
2023-03-04T08:14:36.929Z,1.85
2023-03-04T08:16:39.913Z,1.59
2023-03-04T08:18:43.765Z,0.09
2023-03-04T08:20:46.505Z,1.87
2023-03-04T08:22:49.266Z,2.09
2023-03-04T08:24:52.046Z,2.12
2023-03-04T08:26:55.242Z,2.14
2023-03-04T08:29:01.558Z,0.99
2023-03-04T08:31:04.537Z,2.29
2023-03-04T08:33:07.934Z,2.45
2023-03-04T08:35:10.682Z,1.67
2023-03-04T08:37:13.393Z,2.24
2023-03-04T08:39:18.078Z,1.64
2023-03-04T08:41:20.914Z,2.06
2023-03-04T08:43:25.541Z,2.75
2023-03-04T08:45:29.702Z,2.78
2023-03-04T08:47:32.433Z,2.44
2023-03-04T08:49:35.145Z,2.56
2023-03-04T08:51:37.926Z,2.46
2023-03-04T08:53:40.990Z,2.13
2023-03-04T08:55:44.903Z,1.88
2023-03-04T08:57:47.768Z,1.83
2023-03-04T08:59:50.514Z,1.87
2023-03-04T09:01:54.634Z,1.70
2023-03-04T09:03:57.488Z,1.60
2023-03-04T09:06:02.644Z,1.54
2023-03-04T09:08:05.580Z,1.25
2023-03-04T09:10:09.454Z,1.41
2023-03-04T09:12:12.322Z,1.38
2023-03-04T09:14:15.129Z,1.54
2023-03-04T09:16:18.106Z,1.31
2023-03-04T09:18:24.267Z,1.31
2023-03-04T09:20:27.125Z,1.01
2023-03-04T09:22:29.838Z,0.77
2023-03-04T09:24:32.631Z,1.21
2023-03-04T09:26:35.404Z,1.57
2023-03-04T09:28:38.159Z,1.79
2023-03-04T09:30:41.281Z,1.69
2023-03-04T09:32:44.013Z,1.35
2023-03-04T09:34:48.177Z,1.71
2023-03-04T09:36:50.935Z,1.29
2023-03-04T09:38:53.737Z,1.59
2023-03-04T09:40:57.511Z,1.27
2023-03-04T09:43:04.306Z,1.34
2023-03-04T09:45:08.829Z,1.00
2023-03-04T09:47:15.266Z,1.15
2023-03-04T09:49:20.353Z,0.71
2023-03-04T09:51:42.653Z,0.55
2023-03-04T09:53:55.372Z,0.72
2023-03-04T09:55:59.068Z,1.42
2023-03-04T09:58:07.991Z,1.35
2023-03-04T10:00:19.842Z,1.61
2023-03-04T10:02:32.775Z,1.42
2023-03-04T10:04:41.157Z,1.68
2023-03-04T10:06:51.562Z,1.96
2023-03-04T10:09:00.757Z,2.23
2023-03-04T10:11:07.492Z,2.30
2023-03-04T10:13:16.268Z,2.58
2023-03-04T10:15:28.666Z,2.76
2023-03-04T10:17:37.907Z,2.94
2023-03-04T10:19:56.422Z,2.70
2023-03-04T10:22:00.530Z,2.46
2023-03-04T10:24:12.067Z,1.96
2023-03-04T10:26:17.178Z,1.81
2023-03-04T10:28:24.339Z,1.98
2023-03-04T10:30:41.342Z,2.22
2023-03-04T10:32:47.718Z,2.42
2023-03-04T10:34:50.467Z,1.66
2023-03-04T10:36:59.156Z,2.58
2023-03-04T10:39:07.331Z,2.28
2023-03-04T10:41:14.723Z,2.37
2023-03-04T10:43:19.410Z,2.25
2023-03-04T10:45:36.674Z,1.68
2023-03-04T10:47:39.479Z,2.63
2023-03-04T10:49:52.354Z,2.32
2023-03-04T10:52:02.723Z,2.81
2023-03-04T10:54:11.807Z,2.53
2023-03-04T10:56:36.652Z,3.03
2023-03-04T10:58:39.392Z,3.22
2023-03-04T11:00:42.598Z,2.99
2023-03-04T11:02:46.494Z,3.79
2023-03-04T11:04:55.870Z,3.89
2023-03-04T11:06:58.636Z,3.48
2023-03-04T11:09:01.420Z,3.83
2023-03-04T11:11:22.615Z,4.13
2023-03-04T11:13:28.020Z,3.79
2023-03-04T11:15:32.337Z,3.80
2023-03-04T11:17:44.931Z,4.00
2023-03-04T11:19:52.422Z,4.45
2023-03-04T11:22:00.294Z,4.51
2023-03-04T11:24:13.384Z,4.09
2023-03-04T11:26:31.919Z,4.15
2023-03-04T11:28:45.365Z,3.89
2023-03-04T11:30:51.300Z,4.14
2023-03-04T11:33:01.852Z,4.32
2023-03-04T11:35:16.747Z,3.97
2023-03-04T11:37:26.430Z,4.33
2023-03-04T11:39:35.390Z,4.32
2023-03-04T11:41:43.517Z,4.40
2023-03-04T11:43:48.533Z,4.39
2023-03-04T11:46:11.345Z,4.50
2023-03-04T11:48:24.805Z,4.65
2023-03-04T11:50:36.321Z,4.53
2023-03-04T11:53:09.164Z,3.84
2023-03-04T11:55:30.819Z,3.81
2023-03-04T11:57:42.651Z,4.06
2023-03-04T11:59:54.952Z,4.30
2023-03-04T12:02:12.553Z,4.09
2023-03-04T12:04:28.749Z,4.79
2023-03-04T12:06:44.165Z,4.80
2023-03-04T12:08:59.206Z,5.19
2023-03-04T12:11:06.592Z,5.39
2023-03-04T12:13:48.180Z,4.36
2023-03-04T12:16:01.476Z,5.87
2023-03-04T12:18:22.089Z,5.87
2023-03-04T12:20:41.515Z,4.86
2023-03-04T12:22:46.772Z,4.57
2023-03-04T12:25:10.629Z,4.67
2023-03-04T12:27:25.090Z,5.22
2023-03-04T12:29:39.123Z,5.66
2023-03-04T12:31:44.544Z,6.30
2023-03-04T12:34:00.568Z,6.99
2023-03-04T12:36:14.435Z,7.84
2023-03-04T12:38:31.810Z,8.45
2023-03-04T12:40:44.228Z,8.43
2023-03-04T12:43:00.968Z,8.83
2023-03-04T12:45:16.683Z,7.99
2023-03-04T12:47:29.979Z,8.17
2023-03-04T12:49:52.889Z,7.93
2023-03-04T12:52:04.321Z,7.66
2023-03-04T12:54:20.320Z,8.19
2023-03-04T12:56:27.808Z,8.60
2023-03-04T12:58:34.406Z,8.56
2023-03-04T13:00:54.120Z,8.31
2023-03-04T13:03:08.466Z,8.16
2023-03-04T13:05:46.840Z,8.08
2023-03-04T13:08:00.432Z,7.95
2023-03-04T13:10:09.187Z,7.63
2023-03-04T13:12:17.010Z,8.41
2023-03-04T13:14:31.959Z,9.25
2023-03-04T13:16:40.047Z,8.32
2023-03-04T13:18:45.070Z,8.17
2023-03-04T13:20:48.011Z,8.79
2023-03-04T13:22:55.713Z,9.42
2023-03-04T13:24:59.379Z,9.72
2023-03-04T13:27:04.542Z,8.80
2023-03-04T13:29:27.257Z,7.74
2023-03-04T13:31:30.473Z,7.96
2023-03-04T13:34:04.464Z,7.18
2023-03-04T13:36:26.734Z,6.91
2023-03-04T13:38:36.348Z,7.39
2023-03-04T13:40:39.600Z,7.28
2023-03-04T13:42:45.009Z,7.65
2023-03-04T13:45:06.152Z,7.15
2023-03-04T13:47:10.789Z,7.79
2023-03-04T13:49:23.606Z,8.16
2023-03-04T13:51:30.628Z,8.30
2023-03-04T13:53:44.726Z,9.22
2023-03-04T13:56:07.579Z,8.05
2023-03-04T13:58:19.363Z,9.15
2023-03-04T14:00:22.331Z,7.43
2023-03-04T14:02:27.203Z,8.38
2023-03-04T14:04:35.687Z,8.78
2023-03-04T14:06:42.716Z,8.35
2023-03-04T14:08:45.623Z,8.29
2023-03-04T14:10:56.986Z,7.76
2023-03-04T14:13:01.720Z,7.99
2023-03-04T14:15:07.344Z,7.78
2023-03-04T14:17:19.275Z,8.17
2023-03-04T14:19:26.273Z,8.40
2023-03-04T14:21:31.050Z,8.73
2023-03-04T14:23:36.516Z,7.28
2023-03-04T14:25:39.266Z,7.66
2023-03-04T14:27:42.557Z,7.64
2023-03-04T14:29:45.287Z,9.01
2023-03-04T14:31:48.209Z,9.64
2023-03-04T14:33:54.037Z,9.87
2023-03-04T14:35:59.664Z,10.35
2023-03-04T14:38:07.719Z,10.19
2023-03-04T14:40:21.259Z,10.09
2023-03-04T14:42:26.767Z,9.01
2023-03-04T14:44:35.993Z,8.53
2023-03-04T14:46:42.174Z,8.54
2023-03-04T14:48:50.213Z,8.46
2023-03-04T14:50:55.373Z,8.10
2023-03-04T14:53:16.604Z,9.06
2023-03-04T14:55:22.754Z,8.87
2023-03-04T14:57:27.390Z,8.48
2023-03-04T14:59:34.832Z,8.62
2023-03-04T15:01:38.835Z,8.78
2023-03-04T15:03:44.644Z,8.32
2023-03-04T15:05:47.656Z,8.68
2023-03-04T15:07:56.326Z,8.24
2023-03-04T15:10:03.177Z,6.97
2023-03-04T15:12:09.393Z,7.41
2023-03-04T15:14:44.768Z,6.37
2023-03-04T15:16:55.831Z,6.97
2023-03-04T15:19:02.034Z,7.18
2023-03-04T15:21:06.800Z,7.05
2023-03-04T15:23:14.625Z,7.30
2023-03-04T15:25:20.420Z,6.15
2023-03-04T15:27:25.112Z,5.81
2023-03-04T15:29:27.867Z,4.99
2023-03-04T15:31:31.124Z,4.65
2023-03-04T15:33:33.973Z,5.18
2023-03-04T15:35:36.895Z,5.74
2023-03-04T15:37:41.670Z,5.29
2023-03-04T15:39:44.401Z,4.89
2023-03-04T15:41:50.490Z,4.79
2023-03-04T15:43:54.586Z,3.97
2023-03-04T15:45:57.344Z,4.18
2023-03-04T15:48:00.115Z,3.83
2023-03-04T15:50:04.059Z,4.07
2023-03-04T15:52:08.348Z,3.63
2023-03-04T15:54:14.295Z,3.97
2023-03-04T15:56:20.088Z,3.23
2023-03-04T15:58:24.219Z,3.35
2023-03-04T16:00:27.389Z,3.66
2023-03-04T16:02:30.511Z,3.71
2023-03-04T16:04:33.257Z,3.77
2023-03-04T16:06:36.495Z,3.43
2023-03-04T16:08:39.946Z,4.00
2023-03-04T16:10:43.898Z,3.43
2023-03-04T16:12:46.966Z,3.38
2023-03-04T16:14:51.305Z,3.49
2023-03-04T16:16:54.124Z,2.70
2023-03-04T16:18:56.831Z,2.68
2023-03-04T16:21:00.924Z,3.23
2023-03-04T16:23:04.414Z,2.96
2023-03-04T16:25:07.598Z,3.09
2023-03-04T16:27:11.403Z,1.83
2023-03-04T16:29:14.125Z,2.75
2023-03-04T16:31:19.441Z,2.36
2023-03-04T16:33:22.227Z,1.92
2023-03-04T16:35:27.662Z,2.59
2023-03-04T16:37:30.506Z,2.51
2023-03-04T16:39:33.497Z,2.51
2023-03-04T16:41:37.075Z,2.17
2023-03-04T16:43:40.080Z,2.38
2023-03-04T16:45:43.120Z,0.95
2023-03-04T16:47:47.283Z,2.76
2023-03-04T16:49:50.163Z,2.81
2023-03-04T16:51:52.909Z,2.15
2023-03-04T16:53:57.443Z,1.61
2023-03-04T16:56:04.955Z,2.42
2023-03-04T16:58:08.395Z,2.42
2023-03-04T17:00:12.497Z,2.20
2023-03-04T17:02:17.398Z,2.48
2023-03-04T17:04:22.328Z,2.35
2023-03-04T17:06:25.392Z,2.57
2023-03-04T17:08:28.152Z,2.08
2023-03-04T17:10:30.918Z,2.30
2023-03-04T17:12:33.710Z,2.32
2023-03-04T17:14:36.890Z,2.62
2023-03-04T17:16:39.682Z,2.16
2023-03-04T17:18:44.212Z,2.07
2023-03-04T17:20:48.314Z,2.34
2023-03-04T17:22:51.119Z,1.99
2023-03-04T17:24:53.846Z,2.12
2023-03-04T17:26:56.579Z,2.17
2023-03-04T17:28:59.321Z,1.78
2023-03-04T17:31:02.608Z,1.89
2023-03-04T17:33:05.475Z,2.01
2023-03-04T17:35:09.378Z,1.86
2023-03-04T17:37:13.641Z,2.11
2023-03-04T17:39:16.446Z,0.77
2023-03-04T17:41:19.300Z,1.83
2023-03-04T17:43:22.014Z,1.78
2023-03-04T17:45:24.891Z,1.15
2023-03-04T17:47:27.647Z,1.96
2023-03-04T17:49:30.363Z,2.19
2023-03-04T17:51:34.993Z,2.02
2023-03-04T17:53:39.685Z,1.14
2023-03-04T17:55:44.554Z,0.65
2023-03-04T17:57:47.367Z,2.08
2023-03-04T17:59:50.291Z,2.01
2023-03-04T18:01:54.296Z,2.16
2023-03-04T18:03:57.174Z,1.83
2023-03-04T18:06:00.001Z,1.81
2023-03-04T18:08:02.754Z,2.12
2023-03-04T18:10:08.154Z,2.11
2023-03-04T18:12:11.120Z,1.88
2023-03-04T18:14:13.930Z,2.12
2023-03-04T18:16:23.129Z,1.84
2023-03-04T18:18:26.054Z,0.55
2023-03-04T18:20:28.813Z,1.75
2023-03-04T18:22:31.564Z,1.95
2023-03-04T18:24:34.461Z,2.20
2023-03-04T18:26:38.539Z,2.11
2023-03-04T18:28:41.432Z,1.96
2023-03-04T18:30:44.162Z,2.04
2023-03-04T18:32:52.195Z,2.09
2023-03-04T18:34:55.314Z,1.68
2023-03-04T18:36:58.018Z,1.96
2023-03-04T18:39:02.285Z,1.95
2023-03-04T18:41:07.406Z,1.91
2023-03-04T18:43:13.966Z,2.11
2023-03-04T18:45:17.517Z,1.57
2023-03-04T18:47:20.535Z,1.77
2023-03-04T18:49:24.168Z,1.08
2023-03-04T18:51:26.988Z,1.29
2023-03-04T18:53:30.664Z,1.49
2023-03-04T18:55:33.428Z,1.47
2023-03-04T18:57:36.275Z,1.58
2023-03-04T18:59:44.271Z,1.63
2023-03-04T19:01:47.869Z,1.81
2023-03-04T19:03:51.024Z,1.80
2023-03-04T19:05:55.464Z,2.26
2023-03-04T19:07:58.370Z,2.22
2023-03-04T19:10:01.175Z,1.71
2023-03-04T19:12:06.430Z,0.74
2023-03-04T19:14:09.398Z,1.50
2023-03-04T19:16:13.594Z,2.04
2023-03-04T19:18:16.331Z,1.49
2023-03-04T19:20:19.387Z,2.03
2023-03-04T19:22:22.179Z,0.91
2023-03-04T19:24:25.128Z,0.95
2023-03-04T19:26:27.883Z,1.84
2023-03-04T19:28:30.661Z,2.09
2023-03-04T19:30:33.944Z,2.20
2023-03-04T19:32:38.121Z,2.19
2023-03-04T19:34:40.941Z,1.78
2023-03-04T19:36:43.830Z,2.22
2023-03-04T19:38:46.589Z,1.85
2023-03-04T19:40:49.324Z,1.91
2023-03-04T19:42:52.029Z,1.91
2023-03-04T19:44:55.033Z,2.09
2023-03-04T19:46:57.889Z,1.49
2023-03-04T19:49:04.686Z,1.81
2023-03-04T19:51:14.595Z,1.76
2023-03-04T19:53:18.733Z,1.88
2023-03-04T19:55:21.984Z,1.73
2023-03-04T19:57:24.687Z,1.82
2023-03-04T19:59:27.528Z,1.93
2023-03-04T20:01:32.117Z,1.51
2023-03-04T20:03:34.952Z,1.79
2023-03-04T20:05:39.373Z,1.08
2023-03-04T20:07:43.710Z,2.04
2023-03-04T20:09:46.481Z,2.17
2023-03-04T20:11:59.048Z,2.30
2023-03-04T20:14:03.258Z,1.67
2023-03-04T20:16:08.857Z,2.03
2023-03-04T20:18:11.685Z,1.29
2023-03-04T20:20:15.797Z,2.02
2023-03-04T20:22:19.962Z,1.77
2023-03-04T20:24:23.226Z,2.16
2023-03-04T20:26:26.118Z,2.28
2023-03-04T20:28:29.606Z,1.86
2023-03-04T20:30:32.402Z,2.09
2023-03-04T20:32:35.209Z,1.92
2023-03-04T20:34:38.061Z,1.51
2023-03-04T20:36:40.816Z,1.88
2023-03-04T20:38:45.489Z,1.91
2023-03-04T20:40:48.263Z,1.76
2023-03-04T20:42:50.992Z,1.87
2023-03-04T20:44:53.770Z,1.72
2023-03-04T20:46:56.610Z,2.15
2023-03-04T20:49:01.284Z,1.12
2023-03-04T20:51:04.160Z,2.30
2023-03-04T20:53:06.901Z,2.56
2023-03-04T20:55:11.910Z,2.80
2023-03-04T20:57:14.679Z,2.84
2023-03-04T20:59:17.802Z,2.86
2023-03-04T21:01:20.816Z,2.87
2023-03-04T21:03:23.641Z,2.95
2023-03-04T21:05:27.504Z,2.98
2023-03-04T21:07:30.311Z,3.00
2023-03-04T21:09:33.103Z,1.81
2023-03-04T21:11:40.576Z,3.03
2023-03-04T21:13:44.728Z,2.32
2023-03-04T21:15:48.129Z,3.09
2023-03-04T21:17:51.047Z,2.85
2023-03-04T21:19:53.893Z,3.13
2023-03-04T21:21:58.511Z,2.12
2023-03-04T21:24:01.350Z,3.08
2023-03-04T21:26:04.424Z,3.08
2023-03-04T21:28:08.798Z,3.10
2023-03-04T21:30:12.983Z,2.69
2023-03-04T21:32:24.620Z,3.04
2023-03-04T21:34:33.381Z,3.04
2023-03-04T21:36:36.149Z,2.45
2023-03-04T21:38:39.573Z,3.09
2023-03-04T21:40:42.952Z,3.06
2023-03-04T21:42:45.743Z,2.26
2023-03-04T21:44:51.448Z,3.09
2023-03-04T21:46:54.692Z,3.11
2023-03-04T21:48:57.523Z,3.07
2023-03-04T21:51:02.825Z,3.03
2023-03-04T21:53:05.589Z,3.03
2023-03-04T21:55:09.150Z,2.28
2023-03-04T21:57:13.360Z,2.44
2023-03-04T21:59:17.397Z,2.99
2023-03-04T22:01:23.222Z,0.65
2023-03-04T22:03:27.100Z,2.56
2023-03-04T22:05:29.905Z,2.37
2023-03-04T22:07:34.557Z,2.19
2023-03-04T22:09:37.342Z,2.23
2023-03-04T22:11:40.128Z,2.66
2023-03-04T22:13:43.158Z,2.44
2023-03-04T22:15:46.114Z,2.19
2023-03-04T22:17:50.871Z,2.59
2023-03-04T22:19:53.687Z,2.22
2023-03-04T22:21:56.485Z,2.88
2023-03-04T22:23:59.254Z,2.97
2023-03-04T22:26:04.839Z,1.23
2023-03-04T22:28:08.637Z,3.07
2023-03-04T22:30:12.520Z,3.06
2023-03-04T22:32:16.950Z,2.98
2023-03-04T22:34:21.110Z,2.45
2023-03-04T22:36:23.850Z,2.73
2023-03-04T22:38:26.664Z,2.26
2023-03-04T22:40:29.388Z,2.30
2023-03-04T22:42:32.122Z,2.53
2023-03-04T22:44:35.794Z,2.48
2023-03-04T22:46:39.875Z,1.95
2023-03-04T22:48:42.660Z,1.10
2023-03-04T22:50:46.770Z,2.95
2023-03-04T22:52:50.132Z,3.02
2023-03-04T22:54:53.063Z,3.12
2023-03-04T22:56:55.895Z,3.12
2023-03-04T22:58:58.645Z,3.15
2023-03-04T23:01:02.454Z,2.93
2023-03-04T23:03:06.364Z,3.21
2023-03-04T23:05:10.718Z,1.98
2023-03-04T23:07:14.834Z,3.27
2023-03-04T23:09:17.607Z,3.25
2023-03-04T23:11:22.359Z,2.65
2023-03-04T23:13:25.850Z,3.28
2023-03-04T23:15:28.665Z,2.95
2023-03-04T23:17:31.458Z,2.95
2023-03-04T23:19:34.219Z,3.28
2023-03-04T23:21:38.028Z,3.24
2023-03-04T23:23:42.552Z,3.24
2023-03-04T23:25:46.485Z,2.73
2023-03-04T23:27:49.332Z,3.25
2023-03-04T23:29:52.362Z,3.27
2023-03-04T23:31:55.184Z,3.26
2023-03-04T23:33:59.214Z,3.25
2023-03-04T23:36:02.055Z,3.15
2023-03-04T23:38:04.824Z,3.14
2023-03-04T23:40:10.706Z,3.14
2023-03-04T23:42:13.591Z,2.86
2023-03-04T23:44:16.374Z,3.14
2023-03-04T23:46:19.306Z,2.07
2023-03-04T23:48:22.066Z,3.09
2023-03-04T23:50:24.816Z,3.08
2023-03-04T23:52:28.047Z,3.09
2023-03-04T23:54:31.221Z,2.92
2023-03-04T23:56:35.417Z,3.02
2023-03-04T23:58:38.537Z,2.82
